createdAt,value
2016-11-25T00:00:32.210Z,3.81
2016-11-25T00:01:32.170Z,3.89
2016-11-25T00:02:32.337Z,3.74
2016-11-25T00:03:32.229Z,3.74
2016-11-25T00:04:32.244Z,3.72
2016-11-25T00:05:32.154Z,3.72
2016-11-25T00:06:32.163Z,3.69
2016-11-25T00:07:32.157Z,3.81
2016-11-25T00:08:32.250Z,3.69
2016-11-25T00:09:32.167Z,3.74
2016-11-25T00:10:32.240Z,3.6
2016-11-25T00:11:32.523Z,3.58
2016-11-25T00:12:32.274Z,3.61
2016-11-25T00:13:32.173Z,3.58
2016-11-25T00:14:32.193Z,3.6
2016-11-25T00:15:32.275Z,3.61
2016-11-25T00:16:32.277Z,3.66
2016-11-25T00:17:32.288Z,3.61
2016-11-25T00:18:32.281Z,3.48
2016-11-25T00:19:32.351Z,3.63
2016-11-25T00:20:32.299Z,3.63
2016-11-25T00:21:32.352Z,3.66
2016-11-25T00:22:32.219Z,3.58
2016-11-25T00:23:32.274Z,3.56
2016-11-25T00:24:32.356Z,3.56
2016-11-25T00:25:32.238Z,3.54
2016-11-25T00:26:32.379Z,3.58
2016-11-25T00:27:32.229Z,3.57
2016-11-25T00:28:32.265Z,3.64
2016-11-25T00:29:32.302Z,3.57
2016-11-25T00:30:32.307Z,3.63
2016-11-25T00:31:32.224Z,3.58
2016-11-25T00:32:32.444Z,3.57
2016-11-25T00:33:32.361Z,3.6
2016-11-25T00:34:32.312Z,3.58
2016-11-25T00:35:32.224Z,3.54
2016-11-25T00:36:32.227Z,3.56
2016-11-25T00:37:32.319Z,3.49
2016-11-25T00:38:32.243Z,3.43
2016-11-25T00:39:32.408Z,3.49
2016-11-25T00:40:32.408Z,3.46
2016-11-25T00:41:32.428Z,3.54
2016-11-25T00:42:32.326Z,3.42
2016-11-25T00:43:32.332Z,3.45
2016-11-25T00:44:32.394Z,3.3
2016-11-25T00:45:32.416Z,3.3
2016-11-25T00:46:32.430Z,3.21
2016-11-25T00:47:32.363Z,3.32
2016-11-25T00:48:32.342Z,3.3
2016-11-25T00:49:32.396Z,3.21
2016-11-25T00:50:32.441Z,3.42
2016-11-25T00:51:32.464Z,3.3
2016-11-25T00:52:32.362Z,3.48
2016-11-25T00:53:32.462Z,3.3
2016-11-25T00:54:32.369Z,3.34
2016-11-25T00:55:32.394Z,3.34
2016-11-25T00:56:32.450Z,3.39
2016-11-25T00:57:32.396Z,3.37
2016-11-25T00:58:32.307Z,3.32
2016-11-25T00:59:32.479Z,3.37
2016-11-25T01:00:32.417Z,3.34
2016-11-25T01:01:32.305Z,3.43
2016-11-25T01:02:32.323Z,3.26
2016-11-25T01:03:32.476Z,3.27
2016-11-25T01:04:32.640Z,3.42
2016-11-25T01:05:32.422Z,3.3
2016-11-25T01:06:32.485Z,3.29
2016-11-25T01:07:32.407Z,3.21
2016-11-25T01:08:32.395Z,3.3
2016-11-25T01:09:32.335Z,3.34
2016-11-25T01:10:32.544Z,3.19
2016-11-25T01:11:32.508Z,3.3
2016-11-25T01:12:32.333Z,3.14
2016-11-25T01:13:32.496Z,3.26
2016-11-25T01:14:32.441Z,3.19
2016-11-25T01:15:32.454Z,3.19
2016-11-25T01:16:32.445Z,3.27
2016-11-25T01:17:32.451Z,3.11
2016-11-25T01:18:32.500Z,3.16
2016-11-25T01:19:32.438Z,3.09
2016-11-25T01:20:32.388Z,3.06
2016-11-25T01:21:32.537Z,3.03
2016-11-25T01:22:32.409Z,3.09
2016-11-25T01:23:32.441Z,3.09
2016-11-25T01:24:32.375Z,3.03
2016-11-25T01:25:32.446Z,3.13
2016-11-25T01:26:32.392Z,2.91
2016-11-25T01:27:32.543Z,3.09
2016-11-25T01:28:32.466Z,2.91
2016-11-25T01:29:32.544Z,2.96
2016-11-25T01:30:32.549Z,3.06
2016-11-25T01:31:32.387Z,2.91
2016-11-25T01:32:32.442Z,3.09
2016-11-25T01:33:32.477Z,3.09
2016-11-25T01:34:32.485Z,3.06
2016-11-25T01:35:32.578Z,3.01
2016-11-25T01:36:32.487Z,2.99
2016-11-25T01:37:32.422Z,3.03
2016-11-25T01:38:32.492Z,3.05
2016-11-25T01:39:32.573Z,3.01
2016-11-25T01:40:32.579Z,3.13
2016-11-25T01:41:32.431Z,2.96
2016-11-25T01:42:32.487Z,3.01
2016-11-25T01:43:32.528Z,2.93
2016-11-25T01:44:32.507Z,2.9
2016-11-25T01:45:32.429Z,2.87
2016-11-25T01:46:32.424Z,2.72
2016-11-25T01:47:32.511Z,2.88
2016-11-25T01:48:32.618Z,2.84
2016-11-25T01:49:32.511Z,2.87
2016-11-25T01:50:32.452Z,2.8
2016-11-25T01:51:32.529Z,2.76
2016-11-25T01:52:32.525Z,2.65
2016-11-25T01:53:32.568Z,2.67
2016-11-25T01:54:32.449Z,2.66
2016-11-25T01:55:32.533Z,2.62
2016-11-25T01:56:32.554Z,2.51
2016-11-25T01:57:32.544Z,2.54
2016-11-25T01:58:32.457Z,2.63
2016-11-25T01:59:32.542Z,2.65
2016-11-25T02:00:32.629Z,2.59
2016-11-25T02:01:32.483Z,2.63
2016-11-25T02:02:32.547Z,2.65
2016-11-25T02:03:32.580Z,2.62
2016-11-25T02:04:32.583Z,2.6
2016-11-25T02:05:32.488Z,2.58
2016-11-25T02:06:32.666Z,2.63
2016-11-25T02:07:32.476Z,2.54
2016-11-25T02:08:32.504Z,2.51
2016-11-25T02:09:32.600Z,2.62
2016-11-25T02:10:32.586Z,2.6
2016-11-25T02:11:32.592Z,2.59
2016-11-25T02:12:32.583Z,2.63
2016-11-25T02:13:32.656Z,2.63
2016-11-25T02:14:32.664Z,2.63
2016-11-25T02:15:32.587Z,2.55
2016-11-25T02:16:32.609Z,2.62
2016-11-25T02:17:32.596Z,2.63
2016-11-25T02:18:32.517Z,2.6
2016-11-25T02:19:32.587Z,2.58
2016-11-25T02:20:32.621Z,2.44
2016-11-25T02:21:32.587Z,2.48
2016-11-25T02:22:32.603Z,2.47
2016-11-25T02:23:33.315Z,2.51
2016-11-25T02:24:32.687Z,2.54
2016-11-25T02:25:32.625Z,2.4
2016-11-25T02:26:32.541Z,2.47
2016-11-25T02:27:32.698Z,2.36
2016-11-25T02:28:32.539Z,2.52
2016-11-25T02:29:32.621Z,2.45
2016-11-25T02:30:32.642Z,2.42
2016-11-25T02:31:32.625Z,2.38
2016-11-25T02:32:32.628Z,2.44
2016-11-25T02:33:33.123Z,2.44
2016-11-25T02:34:32.647Z,2.44
2016-11-25T02:35:32.637Z,2.47
2016-11-25T02:36:32.745Z,2.48
2016-11-25T02:37:32.714Z,2.44
2016-11-25T02:38:32.725Z,2.4
2016-11-25T02:39:32.751Z,2.52
2016-11-25T02:40:32.652Z,2.42
2016-11-25T02:41:32.777Z,2.4
2016-11-25T02:42:32.596Z,2.41
2016-11-25T02:43:32.656Z,2.3
2016-11-25T02:44:32.579Z,2.34
2016-11-25T02:45:32.756Z,2.38
2016-11-25T02:46:32.737Z,2.38
2016-11-25T02:47:32.673Z,2.42
2016-11-25T02:48:32.669Z,2.44
2016-11-25T02:49:32.679Z,2.4
2016-11-25T02:50:32.690Z,2.3
2016-11-25T02:51:32.615Z,2.31
2016-11-25T02:52:32.864Z,2.41
2016-11-25T02:53:32.703Z,2.49
2016-11-25T02:54:32.636Z,2.51
2016-11-25T02:55:32.628Z,2.51
2016-11-25T02:56:32.616Z,2.45
2016-11-25T02:57:32.789Z,2.44
2016-11-25T02:58:32.622Z,2.29
2016-11-25T02:59:32.634Z,2.33
2016-11-25T03:00:32.718Z,2.29
2016-11-25T03:01:32.642Z,2.38
2016-11-25T03:02:32.719Z,2.27
2016-11-25T03:03:32.717Z,2.36
2016-11-25T03:04:32.792Z,2.51
2016-11-25T03:05:32.641Z,2.4
2016-11-25T03:06:32.809Z,2.23
2016-11-25T03:07:32.797Z,2.26
2016-11-25T03:08:32.931Z,2.26
2016-11-25T03:09:32.815Z,2.29
2016-11-25T03:10:32.821Z,2.22
2016-11-25T03:11:32.740Z,2.16
2016-11-25T03:12:32.730Z,2.11
2016-11-25T03:13:32.776Z,2.04
2016-11-25T03:14:32.674Z,2.04
2016-11-25T03:15:32.819Z,2.11
2016-11-25T03:16:32.745Z,2.09
2016-11-25T03:17:32.770Z,2.05
2016-11-25T03:18:32.749Z,2.06
2016-11-25T03:19:32.670Z,2.09
2016-11-25T03:20:32.687Z,2.05
2016-11-25T03:21:32.762Z,2.13
2016-11-25T03:22:32.688Z,2.11
2016-11-25T03:23:32.841Z,2.13
2016-11-25T03:24:32.986Z,2.09
2016-11-25T03:25:32.791Z,2.13
2016-11-25T03:26:32.864Z,2.12
2016-11-25T03:27:32.777Z,2.08
2016-11-25T03:28:32.720Z,2.18
2016-11-25T03:29:32.885Z,2.18
2016-11-25T03:30:32.724Z,2.01
2016-11-25T03:31:32.728Z,1.98
2016-11-25T03:32:32.816Z,1.87
2016-11-25T03:33:32.822Z,1.89
2016-11-25T03:34:32.712Z,1.87
2016-11-25T03:35:32.800Z,1.97
2016-11-25T03:36:32.892Z,1.94
2016-11-25T03:37:32.802Z,1.89
2016-11-25T03:38:32.886Z,1.89
2016-11-25T03:39:32.827Z,1.93
2016-11-25T03:40:32.882Z,2.04
2016-11-25T03:41:32.822Z,1.98
2016-11-25T03:42:32.825Z,1.93
2016-11-25T03:43:32.833Z,1.97
2016-11-25T03:44:32.840Z,1.86
2016-11-25T03:45:32.877Z,1.84
2016-11-25T03:46:32.852Z,1.9
2016-11-25T03:47:32.834Z,1.78
2016-11-25T03:48:32.836Z,1.86
2016-11-25T03:49:32.868Z,1.87
2016-11-25T03:50:32.779Z,1.69
2016-11-25T03:51:32.885Z,1.71
2016-11-25T03:52:32.765Z,1.68
2016-11-25T03:53:32.861Z,1.61
2016-11-25T03:54:32.928Z,1.86
2016-11-25T03:55:32.857Z,1.83
2016-11-25T03:56:32.887Z,1.79
2016-11-25T03:57:32.787Z,1.76
2016-11-25T03:58:32.900Z,1.79
2016-11-25T03:59:32.881Z,1.72
2016-11-25T04:00:32.958Z,1.82
2016-11-25T04:01:32.816Z,1.9
2016-11-25T04:02:32.887Z,1.92
2016-11-25T04:03:32.894Z,1.71
2016-11-25T04:04:32.963Z,1.69
2016-11-25T04:05:32.891Z,1.78
2016-11-25T04:06:32.920Z,1.84
2016-11-25T04:07:32.810Z,1.86
2016-11-25T04:08:32.806Z,1.86
2016-11-25T04:09:32.997Z,1.89
2016-11-25T04:10:32.918Z,1.84
2016-11-25T04:11:32.896Z,1.87
2016-11-25T04:12:32.941Z,1.79
2016-11-25T04:13:32.835Z,1.89
2016-11-25T04:14:32.833Z,1.84
2016-11-25T04:15:32.961Z,1.82
2016-11-25T04:16:33.003Z,1.79
2016-11-25T04:17:32.925Z,1.78
2016-11-25T04:18:32.927Z,1.78
2016-11-25T04:19:32.849Z,1.78
2016-11-25T04:20:32.899Z,1.89
2016-11-25T04:21:32.924Z,1.74
2016-11-25T04:22:33.003Z,1.72
2016-11-25T04:23:33.010Z,1.53
2016-11-25T04:24:32.859Z,1.64
2016-11-25T04:25:32.946Z,1.58
2016-11-25T04:26:32.874Z,1.68
2016-11-25T04:27:33.037Z,1.53
2016-11-25T04:28:33.165Z,1.58
2016-11-25T04:29:32.951Z,1.53
2016-11-25T04:30:32.971Z,1.47
2016-11-25T04:31:32.950Z,1.42
2016-11-25T04:32:32.990Z,1.46
2016-11-25T04:33:32.983Z,1.36
2016-11-25T04:34:32.876Z,1.33
2016-11-25T04:35:32.959Z,1.24
2016-11-25T04:36:32.963Z,1.26
2016-11-25T04:37:32.976Z,1.47
2016-11-25T04:38:32.983Z,1.5
2016-11-25T04:39:32.979Z,1.53
2016-11-25T04:40:32.981Z,1.57
2016-11-25T04:41:33.002Z,1.51
2016-11-25T04:42:33.079Z,1.58
2016-11-25T04:43:32.911Z,1.47
2016-11-25T04:44:33.023Z,1.54
2016-11-25T04:45:32.913Z,1.46
2016-11-25T04:46:32.985Z,1.58
2016-11-25T04:47:32.999Z,1.53
2016-11-25T04:48:33.073Z,1.65
2016-11-25T04:49:32.947Z,1.53
2016-11-25T04:50:32.955Z,1.53
2016-11-25T04:51:33.080Z,1.53
2016-11-25T04:52:33.009Z,1.48
2016-11-25T04:53:33.021Z,1.48
2016-11-25T04:54:33.022Z,1.46
2016-11-25T04:55:32.937Z,1.46
2016-11-25T04:56:33.014Z,1.39
2016-11-25T04:57:33.092Z,1.54
2016-11-25T04:58:33.370Z,1.48
2016-11-25T04:59:33.091Z,1.65
2016-11-25T05:00:33.062Z,1.64
2016-11-25T05:01:33.052Z,1.58
2016-11-25T05:02:33.107Z,1.6
2016-11-25T05:03:33.048Z,1.58
2016-11-25T05:04:32.958Z,1.66
2016-11-25T05:05:32.993Z,1.61
2016-11-25T05:06:33.057Z,1.57
2016-11-25T05:07:33.055Z,1.39
2016-11-25T05:08:33.115Z,1.39
2016-11-25T05:09:33.056Z,1.35
2016-11-25T05:10:32.989Z,1.29
2016-11-25T05:11:33.161Z,1.28
2016-11-25T05:12:32.998Z,1.26
2016-11-25T05:13:33.084Z,1.33
2016-11-25T05:14:33.020Z,1.22
2016-11-25T05:15:33.161Z,1.24
2016-11-25T05:16:33.026Z,1.29
2016-11-25T05:17:33.001Z,1.36
2016-11-25T05:18:33.082Z,1.39
2016-11-25T05:19:33.174Z,1.36
2016-11-25T05:20:33.173Z,1.48
2016-11-25T05:21:33.114Z,1.57
2016-11-25T05:22:33.100Z,1.58
2016-11-25T05:23:33.098Z,1.5
2016-11-25T05:24:33.090Z,1.47
2016-11-25T05:25:33.098Z,1.44
2016-11-25T05:26:33.016Z,1.39
2016-11-25T05:27:33.025Z,1.44
2016-11-25T05:28:33.104Z,1.53
2016-11-25T05:29:33.115Z,1.5
2016-11-25T05:30:33.108Z,1.51
2016-11-25T05:31:33.105Z,1.42
2016-11-25T05:32:33.167Z,1.44
2016-11-25T05:33:33.072Z,1.57
2016-11-25T05:34:33.060Z,1.5
2016-11-25T05:35:33.068Z,1.48
2016-11-25T05:36:33.051Z,1.56
2016-11-25T05:37:33.127Z,1.69
2016-11-25T05:38:33.135Z,1.69
2016-11-25T05:39:33.150Z,1.68
2016-11-25T05:40:33.142Z,1.69
2016-11-25T05:41:33.073Z,1.64
2016-11-25T05:42:33.227Z,1.68
2016-11-25T05:43:33.252Z,1.6
2016-11-25T05:44:33.183Z,1.66
2016-11-25T05:45:33.085Z,1.71
2016-11-25T05:46:33.150Z,1.58
2016-11-25T05:47:33.164Z,1.54
2016-11-25T05:48:33.288Z,1.6
2016-11-25T05:49:33.178Z,1.58
2016-11-25T05:50:33.113Z,1.58
2016-11-25T05:51:33.265Z,1.54
2016-11-25T05:52:33.183Z,1.57
2016-11-25T05:53:33.206Z,1.47
2016-11-25T05:54:33.109Z,1.54
2016-11-25T05:55:33.136Z,1.54
2016-11-25T05:56:33.180Z,1.44
2016-11-25T05:57:33.102Z,1.48
2016-11-25T05:58:33.195Z,1.46
2016-11-25T05:59:33.129Z,1.29
2016-11-25T06:00:33.280Z,1.3
2016-11-25T06:01:33.117Z,1.29
2016-11-25T06:02:33.186Z,1.29
2016-11-25T06:03:33.190Z,1.36
2016-11-25T06:04:33.328Z,1.3
2016-11-25T06:05:33.210Z,1.35
2016-11-25T06:06:33.211Z,1.35
2016-11-25T06:07:33.310Z,1.39
2016-11-25T06:08:33.225Z,1.35
2016-11-25T06:09:33.335Z,1.39
2016-11-25T06:10:33.310Z,1.47
2016-11-25T06:11:33.238Z,1.33
2016-11-25T06:12:33.235Z,1.3
2016-11-25T06:13:33.163Z,1.28
2016-11-25T06:14:33.310Z,1.32
2016-11-25T06:15:33.369Z,1.36
2016-11-25T06:16:33.175Z,1.47
2016-11-25T06:17:33.322Z,1.57
2016-11-25T06:18:33.246Z,1.72
2016-11-25T06:19:33.245Z,1.61
2016-11-25T06:20:33.220Z,1.75
2016-11-25T06:21:33.172Z,1.71
2016-11-25T06:22:33.173Z,1.82
2016-11-25T06:23:33.261Z,1.83
2016-11-25T06:24:33.347Z,1.76
2016-11-25T06:25:33.266Z,1.83
2016-11-25T06:26:33.207Z,1.86
2016-11-25T06:27:33.210Z,2.01
2016-11-25T06:28:33.272Z,1.83
2016-11-25T06:29:33.191Z,1.75
2016-11-25T06:30:33.268Z,1.71
2016-11-25T06:31:33.204Z,1.74
2016-11-25T06:32:33.297Z,1.65
2016-11-25T06:33:33.272Z,1.68
2016-11-25T06:34:33.293Z,1.74
2016-11-25T06:35:33.361Z,1.75
2016-11-25T06:36:33.255Z,1.76
2016-11-25T06:37:33.365Z,1.66
2016-11-25T06:38:33.293Z,1.71
2016-11-25T06:39:33.224Z,1.83
2016-11-25T06:40:33.283Z,1.87
2016-11-25T06:41:33.430Z,1.97
2016-11-25T06:42:33.388Z,1.89
2016-11-25T06:43:33.279Z,1.94
2016-11-25T06:44:33.978Z,1.9
2016-11-25T06:45:33.499Z,1.94
2016-11-25T06:46:33.451Z,1.79
2016-11-25T06:47:33.263Z,2.06
2016-11-25T06:48:33.320Z,2.09
2016-11-25T06:49:33.405Z,2.02
2016-11-25T06:50:33.269Z,2.09
2016-11-25T06:51:33.357Z,1.97
2016-11-25T06:52:33.577Z,2.06
2016-11-25T06:53:33.418Z,2.05
2016-11-25T06:54:33.342Z,2.06
2016-11-25T06:55:33.392Z,1.98
2016-11-25T06:56:33.377Z,2.01
2016-11-25T06:57:33.294Z,1.94
2016-11-25T06:58:33.397Z,1.97
2016-11-25T06:59:33.370Z,1.98
2016-11-25T07:00:33.302Z,2.06
2016-11-25T07:01:33.380Z,2.06
2016-11-25T07:02:33.416Z,2.04
2016-11-25T07:03:33.387Z,2.13
2016-11-25T07:04:33.290Z,2.16
2016-11-25T07:05:33.476Z,2.26
2016-11-25T07:06:33.366Z,2.23
2016-11-25T07:07:33.385Z,2.23
2016-11-25T07:08:33.599Z,2.24
2016-11-25T07:09:33.306Z,2.18
2016-11-25T07:10:33.307Z,2.18
2016-11-25T07:11:33.366Z,2.15
2016-11-25T07:12:33.455Z,2.23
2016-11-25T07:13:33.327Z,2.24
2016-11-25T07:14:33.320Z,2.12
2016-11-25T07:15:33.509Z,2.24
2016-11-25T07:16:33.392Z,2.18
2016-11-25T07:17:33.453Z,2.22
2016-11-25T07:18:33.482Z,2.16
2016-11-25T07:19:33.480Z,2.23
2016-11-25T07:20:43.913Z,2.26
2016-11-25T07:21:43.827Z,2.3
2016-11-25T07:22:33.411Z,2.27
2016-11-25T07:23:33.483Z,2.26
2016-11-25T07:24:33.524Z,2.23
2016-11-25T07:25:33.426Z,2.22
2016-11-25T07:26:33.354Z,2.18
2016-11-25T07:27:33.348Z,2.31
2016-11-25T07:28:33.443Z,2.27
2016-11-25T07:29:33.387Z,2.18
2016-11-25T07:30:33.526Z,2.12
2016-11-25T07:31:33.429Z,2.24
2016-11-25T07:32:33.502Z,2.16
2016-11-25T07:33:33.450Z,2.33
2016-11-25T07:34:33.456Z,2.44
2016-11-25T07:35:33.425Z,2.51
2016-11-25T07:36:33.378Z,2.42
2016-11-25T07:37:33.452Z,2.44
2016-11-25T07:38:33.462Z,2.38
2016-11-25T07:39:33.383Z,2.41
2016-11-25T07:40:33.640Z,2.38
2016-11-25T07:41:33.482Z,2.51
2016-11-25T07:42:33.475Z,2.48
2016-11-25T07:43:33.386Z,2.42
2016-11-25T07:44:33.584Z,2.45
2016-11-25T07:45:33.512Z,2.44
2016-11-25T07:46:33.399Z,2.54
2016-11-25T07:47:33.575Z,2.62
2016-11-25T07:48:33.608Z,2.66
2016-11-25T07:49:33.501Z,2.54
2016-11-25T07:50:33.405Z,2.62
2016-11-25T07:51:33.412Z,2.7
2016-11-25T07:52:33.574Z,2.54
2016-11-25T07:53:33.445Z,2.62
2016-11-25T07:54:33.583Z,2.7
2016-11-25T07:55:33.597Z,2.67
2016-11-25T07:56:33.545Z,2.77
2016-11-25T07:57:33.499Z,2.69
2016-11-25T07:58:33.551Z,2.83
2016-11-25T07:59:33.602Z,2.87
2016-11-25T08:00:34.589Z,2.9
2016-11-25T08:01:33.570Z,2.88
2016-11-25T08:02:33.602Z,2.85
2016-11-25T08:03:33.522Z,2.88
2016-11-25T08:04:33.520Z,2.93
2016-11-25T08:05:33.645Z,3.01
2016-11-25T08:06:33.480Z,3.06
2016-11-25T08:07:33.530Z,3.09
2016-11-25T08:08:33.631Z,3.21
2016-11-25T08:09:33.664Z,3.3
2016-11-25T08:10:33.619Z,3.43
2016-11-25T08:11:33.558Z,3.43
2016-11-25T08:12:33.669Z,3.45
2016-11-25T08:13:33.481Z,3.54
2016-11-25T08:14:33.555Z,3.61
2016-11-25T08:15:33.597Z,3.58
2016-11-25T08:16:33.527Z,3.58
2016-11-25T08:17:33.549Z,3.63
2016-11-25T08:18:33.716Z,3.63
2016-11-25T08:19:33.664Z,3.75
2016-11-25T08:20:33.596Z,3.76
2016-11-25T08:21:34.049Z,3.85
2016-11-25T08:22:33.659Z,3.79
2016-11-25T08:23:33.566Z,3.84
2016-11-25T08:24:33.503Z,3.79
2016-11-25T08:25:33.671Z,3.76
2016-11-25T08:26:33.611Z,3.76
2016-11-25T08:27:33.580Z,3.92
2016-11-25T08:28:33.719Z,3.81
2016-11-25T08:29:33.601Z,3.72
2016-11-25T08:30:33.614Z,3.85
2016-11-25T08:31:33.608Z,3.9
2016-11-25T08:32:33.683Z,3.81
2016-11-25T08:33:33.549Z,3.9
2016-11-25T08:34:33.515Z,3.94
2016-11-25T08:35:33.606Z,4.02
2016-11-25T08:36:33.739Z,3.92
2016-11-25T08:37:33.637Z,4.08
2016-11-25T08:38:33.542Z,4.29
2016-11-25T08:39:33.704Z,4.22
2016-11-25T08:40:33.733Z,4.39
2016-11-25T08:41:33.629Z,4.53
2016-11-25T08:42:33.744Z,4.44
2016-11-25T08:43:33.598Z,4.54
2016-11-25T08:44:33.670Z,4.51
2016-11-25T08:45:33.558Z,4.64
2016-11-25T08:46:33.666Z,4.51
2016-11-25T08:47:33.729Z,4.68
2016-11-25T08:48:33.653Z,4.76
2016-11-25T08:49:33.667Z,5.06
2016-11-25T08:50:33.810Z,5.18
2016-11-25T08:51:33.688Z,5.28
2016-11-25T08:52:33.575Z,5.41
2016-11-25T08:53:33.757Z,5.57
2016-11-25T08:54:33.686Z,5.7
2016-11-25T08:55:33.699Z,5.8
2016-11-25T08:56:36.218Z,5.77
2016-11-25T08:57:33.686Z,5.96
2016-11-25T08:58:34.050Z,6.06
2016-11-25T08:59:33.910Z,6.14
2016-11-25T09:00:33.770Z,6.21
2016-11-25T09:01:34.417Z,6.17
2016-11-25T09:02:33.662Z,6.33
2016-11-25T09:03:33.949Z,6.2
2016-11-25T09:04:33.762Z,6.28
2016-11-25T09:05:34.113Z,6.34
2016-11-25T09:06:33.788Z,6.37
2016-11-25T09:07:33.787Z,6.37
2016-11-25T09:08:33.891Z,6.37
2016-11-25T09:09:33.791Z,6.52
2016-11-25T09:10:33.713Z,6.67
2016-11-25T09:11:33.762Z,6.78
2016-11-25T09:12:33.643Z,6.93
2016-11-25T09:13:34.597Z,6.95
2016-11-25T09:14:33.873Z,7.09
2016-11-25T09:15:33.768Z,6.9
2016-11-25T09:16:34.472Z,7.05
2016-11-25T09:17:33.800Z,7.13
2016-11-25T09:18:33.819Z,7.04
2016-11-25T09:19:33.839Z,7.23
2016-11-25T09:20:33.975Z,7.4
2016-11-25T09:21:33.924Z,7.39
2016-11-25T09:22:33.819Z,7.63
2016-11-25T09:23:33.805Z,7.63
2016-11-25T09:24:33.749Z,7.75
2016-11-25T09:25:35.009Z,7.78
2016-11-25T09:26:33.792Z,7.85
2016-11-25T09:27:33.724Z,7.96
2016-11-25T09:28:33.822Z,7.89
2016-11-25T09:29:33.705Z,7.99
2016-11-25T09:30:33.865Z,7.67
2016-11-25T09:31:33.791Z,7.74
2016-11-25T09:32:33.846Z,7.83
2016-11-25T09:33:33.690Z,7.93
2016-11-25T09:34:33.824Z,8.09
2016-11-25T09:35:33.787Z,8.24
2016-11-25T09:36:33.924Z,8.35
2016-11-25T09:37:33.736Z,8.43
2016-11-25T09:38:33.831Z,8.49
2016-11-25T09:39:33.847Z,8.32
2016-11-25T09:40:33.837Z,8.36
2016-11-25T09:41:33.864Z,8.49
2016-11-25T09:42:33.874Z,8.76
2016-11-25T09:43:34.004Z,8.77
2016-11-25T09:44:33.858Z,8.82
2016-11-25T09:45:35.497Z,8.67
2016-11-25T09:46:33.819Z,8.65
2016-11-25T09:47:33.893Z,8.72
2016-11-25T09:48:34.178Z,8.67
2016-11-25T09:49:33.847Z,8.62
2016-11-25T09:50:33.858Z,8.62
2016-11-25T09:51:34.005Z,8.65
2016-11-25T09:52:33.941Z,9.08
2016-11-25T09:53:34.087Z,9.21
2016-11-25T09:54:33.879Z,9.23
2016-11-25T09:55:33.936Z,9.24
2016-11-25T09:56:33.921Z,9.29
2016-11-25T09:57:33.942Z,9.52
2016-11-25T09:58:33.770Z,9.66
2016-11-25T09:59:33.791Z,9.72
2016-11-25T10:00:33.922Z,9.74
2016-11-25T10:01:33.880Z,9.52
2016-11-25T10:02:33.929Z,9.57
2016-11-25T10:03:33.899Z,9.09
2016-11-25T10:04:33.819Z,8.94
2016-11-25T10:05:33.969Z,9.09
2016-11-25T10:06:33.861Z,9.24
2016-11-25T10:07:34.495Z,8.87
2016-11-25T10:08:33.874Z,8.89
2016-11-25T10:09:33.887Z,9.23
2016-11-25T10:10:33.848Z,9.2
2016-11-25T10:11:33.969Z,9.39
2016-11-25T10:12:33.910Z,9.27
2016-11-25T10:13:33.888Z,9.16
2016-11-25T10:14:34.359Z,9.24
2016-11-25T10:15:34.239Z,8.89
2016-11-25T10:16:34.395Z,9.2
2016-11-25T10:17:33.899Z,9.5
2016-11-25T10:18:33.989Z,9.59
2016-11-25T10:19:34.069Z,9.8
2016-11-25T10:20:33.939Z,9.85
2016-11-25T10:21:33.857Z,9.7
2016-11-25T10:22:34.197Z,9.74
2016-11-25T10:23:33.943Z,9.78
2016-11-25T10:24:34.020Z,9.99
2016-11-25T10:25:33.923Z,9.98
2016-11-25T10:26:34.016Z,9.88
2016-11-25T10:27:33.958Z,9.88
2016-11-25T10:28:34.012Z,9.75
2016-11-25T10:29:34.017Z,9.92
2016-11-25T10:30:33.852Z,9.99
2016-11-25T10:31:34.297Z,10.1
2016-11-25T10:32:34.290Z,10.13
2016-11-25T10:33:34.727Z,10.38
2016-11-25T10:34:34.063Z,10.47
2016-11-25T10:35:33.982Z,10.85
2016-11-25T10:36:34.085Z,11.12
2016-11-25T10:37:34.034Z,11.39
2016-11-25T10:38:34.231Z,11.03
2016-11-25T10:39:33.992Z,11.09
2016-11-25T10:40:34.070Z,10.91
2016-11-25T10:41:34.017Z,10.94
2016-11-25T10:42:34.818Z,10.66
2016-11-25T10:43:33.929Z,10.61
2016-11-25T10:44:34.017Z,10.54
2016-11-25T10:45:34.110Z,10.67
2016-11-25T10:46:34.939Z,10.77
2016-11-25T10:47:34.098Z,10.83
2016-11-25T10:48:33.931Z,10.79
2016-11-25T10:49:33.987Z,10.69
2016-11-25T10:50:34.111Z,10.65
2016-11-25T10:51:33.970Z,10.88
2016-11-25T10:52:34.028Z,11.03
2016-11-25T10:53:34.024Z,11.05
2016-11-25T10:54:33.926Z,11.09
2016-11-25T10:55:34.002Z,11.02
2016-11-25T10:56:34.039Z,10.91
2016-11-25T10:57:33.947Z,10.98
2016-11-25T10:58:34.397Z,11
2016-11-25T10:59:34.243Z,11.15
2016-11-25T11:00:33.953Z,10.83
2016-11-25T11:01:34.130Z,10.63
2016-11-25T11:02:34.013Z,10.67
2016-11-25T11:03:34.126Z,10.14
2016-11-25T11:04:36.443Z,10.41
2016-11-25T11:05:34.272Z,10.88
2016-11-25T11:06:34.229Z,10.77
2016-11-25T11:07:34.240Z,10.76
2016-11-25T11:08:34.140Z,10.87
2016-11-25T11:09:34.915Z,10.59
2016-11-25T11:10:33.986Z,11.08
2016-11-25T11:11:34.144Z,11.52
2016-11-25T11:12:33.975Z,11.59
2016-11-25T11:13:34.074Z,11.28
2016-11-25T11:14:34.187Z,11.41
2016-11-25T11:15:34.020Z,11.6
2016-11-25T11:16:34.140Z,11.6
2016-11-25T11:17:34.075Z,11.52
2016-11-25T11:18:34.505Z,11.59
2016-11-25T11:19:34.168Z,11.68
2016-11-25T11:20:34.174Z,11.61
2016-11-25T11:21:34.002Z,11.43
2016-11-25T11:22:34.023Z,11.38
2016-11-25T11:23:34.250Z,11.45
2016-11-25T11:24:34.274Z,11.23
2016-11-25T11:25:34.173Z,11.57
2016-11-25T11:26:34.055Z,11.39
2016-11-25T11:27:34.130Z,11.34
2016-11-25T11:28:34.104Z,11.41
2016-11-25T11:29:34.203Z,11.52
2016-11-25T11:30:34.119Z,11.16
2016-11-25T11:31:34.200Z,11.1
2016-11-25T11:32:34.152Z,11.28
2016-11-25T11:33:34.171Z,11.35
2016-11-25T11:34:34.113Z,11.53
2016-11-25T11:35:34.138Z,11.52
2016-11-25T11:36:34.284Z,11.27
2016-11-25T11:37:34.188Z,11.18
2016-11-25T11:38:34.144Z,11.41
2016-11-25T11:39:34.070Z,11.45
2016-11-25T11:40:34.280Z,11.46
2016-11-25T11:41:34.194Z,11.34
2016-11-25T11:42:34.206Z,11.24
2016-11-25T11:43:34.186Z,11.63
2016-11-25T11:44:34.239Z,11.57
2016-11-25T11:45:34.220Z,11.52
2016-11-25T11:46:34.160Z,11.66
2016-11-25T11:47:34.199Z,11.78
2016-11-25T11:48:34.233Z,11.64
2016-11-25T11:49:34.189Z,11.51
2016-11-25T11:50:34.932Z,11.64
2016-11-25T11:51:34.154Z,11.33
2016-11-25T11:52:34.180Z,11.2
2016-11-25T11:53:34.211Z,11.49
2016-11-25T11:54:34.276Z,11.52
2016-11-25T11:55:34.177Z,11.45
2016-11-25T11:56:34.302Z,11.46
2016-11-25T11:57:34.285Z,11.67
2016-11-25T11:58:34.187Z,11.78
2016-11-25T11:59:34.119Z,11.76
2016-11-25T12:00:34.542Z,11.52
2016-11-25T12:01:34.211Z,11.64
2016-11-25T12:02:34.189Z,11.45
2016-11-25T12:03:34.132Z,11.82
2016-11-25T12:04:34.229Z,12.03
2016-11-25T12:05:34.499Z,11.67
2016-11-25T12:06:34.329Z,11.95
2016-11-25T12:07:34.123Z,11.94
2016-11-25T12:08:34.332Z,12
2016-11-25T12:09:34.369Z,12.03
2016-11-25T12:10:34.262Z,12.23
2016-11-25T12:11:34.597Z,12.04
2016-11-25T12:12:34.497Z,12.18
2016-11-25T12:13:34.308Z,11.81
2016-11-25T12:14:34.311Z,11.67
2016-11-25T12:15:34.982Z,11.16
2016-11-25T12:16:34.356Z,11.21
2016-11-25T12:17:34.328Z,11.57
2016-11-25T12:18:34.568Z,11.45
2016-11-25T12:19:34.287Z,11.52
2016-11-25T12:20:34.266Z,11.7
2016-11-25T12:21:34.235Z,11.63
2016-11-25T12:22:34.301Z,11.81
2016-11-25T12:23:34.370Z,11.81
2016-11-25T12:24:34.317Z,11.61
2016-11-25T12:25:34.303Z,11.38
2016-11-25T12:26:34.315Z,11.49
2016-11-25T12:27:34.324Z,11.64
2016-11-25T12:28:34.284Z,11.64
2016-11-25T12:29:34.359Z,11.67
2016-11-25T12:30:34.449Z,11.61
2016-11-25T12:31:34.264Z,11.41
2016-11-25T12:32:34.472Z,11.45
2016-11-25T12:33:34.414Z,11.42
2016-11-25T12:34:34.288Z,11.68
2016-11-25T12:35:34.366Z,11.66
2016-11-25T12:36:34.296Z,11.64
2016-11-25T12:37:34.224Z,11.61
2016-11-25T12:38:34.416Z,11.71
2016-11-25T12:39:34.261Z,11.7
2016-11-25T12:40:34.578Z,11.42
2016-11-25T12:41:34.573Z,11.24
2016-11-25T12:42:34.455Z,10.88
2016-11-25T12:43:34.491Z,10.63
2016-11-25T12:44:34.336Z,10.72
2016-11-25T12:45:34.413Z,10.67
2016-11-25T12:46:34.403Z,10.21
2016-11-25T12:47:34.419Z,10.17
2016-11-25T12:48:34.411Z,10.11
2016-11-25T12:49:34.372Z,10.03
2016-11-25T12:50:34.437Z,10.23
2016-11-25T12:51:34.392Z,10.14
2016-11-25T12:52:34.279Z,10
2016-11-25T12:53:34.381Z,9.96
2016-11-25T12:54:34.542Z,9.74
2016-11-25T12:55:34.531Z,9.72
2016-11-25T12:56:34.362Z,9.78
2016-11-25T12:57:34.396Z,9.98
2016-11-25T12:58:34.435Z,9.85
2016-11-25T12:59:34.460Z,9.74
2016-11-25T13:00:34.360Z,9.77
2016-11-25T13:01:34.521Z,9.92
2016-11-25T13:02:34.358Z,9.81
2016-11-25T13:03:34.369Z,9.67
2016-11-25T13:04:34.492Z,9.62
2016-11-25T13:05:34.542Z,9.59
2016-11-25T13:06:34.348Z,9.42
2016-11-25T13:07:34.339Z,9.53
2016-11-25T13:08:34.447Z,9.44
2016-11-25T13:09:35.811Z,9.5
2016-11-25T13:10:34.431Z,9.47
2016-11-25T13:11:34.507Z,9.53
2016-11-25T13:12:34.438Z,9.45
2016-11-25T13:13:34.321Z,9.44
2016-11-25T13:14:34.403Z,9.41
2016-11-25T13:15:34.455Z,9.41
2016-11-25T13:16:34.479Z,9.42